Terminal Aerodrome Forecast
Issued by NWS

Home | Current Version | Previous Version | Text Only | Print | Product List | Glossary On
Versions: 1 2 3 4 5 6 7 8 9 10 11 12 13
000
FTUS43 KGRB 260520
TAFATW
TAF
KATW 260520Z 2606/2706 13008KT P6SM VCSH SCT035 OVC070
     FM261400 16009G16KT 4SM SHRA BKN020 OVC035
     FM261800 19011G19KT P6SM VCSH BKN015 OVC025
     FM262100 22010G17KT 5SM SHRA OVC025 PROB30 2621/2701 3SM TSRA
      BR OVC015CB
     FM270200 29007KT 5SM -SHRA BR BKN008 OVC015=

USA.gov is the U.S. government's official web portal to all federal, state and local government web resources and services.